Terminal Aerodrome Forecast
Issued by NWS

Home | Current Version | Previous Version | Graphics & Text | Print | Product List | Glossary On
Versions: 1 2 3 4 5 6 7 8 9 10 11 12 13 14 15 16 17 18 19 20 21
000
FTUS42 KMHX 221119 AAA
TAFISO
TAF AMD
KISO 221119Z 2211/2306 24007KT P6SM BKN015
     FM221300 VRB03KT 4SM SHRA BKN010
     FM221700 11004KT P6SM BKN010
     FM230100 09007KT 3SM SHRA BR VCTS OVC015CB
      AMD LTD TO CLD VIS AND WIND=

USA.gov is the U.S. government's official web portal to all federal, state and local government web resources and services.